Time;durP1;ratioP1;P1;durP2;ratioP2;P2;SDS_P1;SDS_P2;PMS_P1;PMS_P2;Temp;Humidity;BMP_temperature;BMP_pressure;BME280_temperature;BME280_humidity;BME280_pressure;Samples;Min_cycle;Max_cycle;Signal;HPM_P1;HPM_P2
2021/05/30 00:01:31;;;;;;;4.55;2.70;;;;;;;19.75;36.66;102897.84;4170415;28;20053;-41
2021/05/30 00:03:32;;;;;;;2.60;2.40;;;;;;;19.70;36.38;102886.59;4168581;28;20052;-41
2021/05/30 00:05:33;;;;;;;4.28;2.40;;;;;;;19.71;36.31;102896.59;4170955;28;20395;-41
2021/05/30 00:07:34;;;;;;;3.22;2.58;;;;;;;19.63;36.48;102895.00;4175411;28;20472;-42
2021/05/30 00:09:35;;;;;;;3.80;2.80;;;;;;;19.70;36.48;102901.31;4174001;28;20132;-41
2021/05/30 00:11:37;;;;;;;3.38;2.45;;;;;;;19.65;36.61;102891.97;4175178;28;20041;-41
2021/05/30 00:13:38;;;;;;;2.35;2.15;;;;;;;19.63;36.47;102899.72;4171703;28;20056;-42
2021/05/30 00:15:38;;;;;;;3.78;2.78;;;;;;;19.64;36.40;102893.91;4171961;28;20566;-41
2021/05/30 00:17:39;;;;;;;2.65;2.45;;;;;;;19.62;36.51;102896.09;4171511;28;20035;-42
2021/05/30 00:19:40;;;;;;;4.28;3.00;;;;;;;19.55;36.65;102896.16;4170589;28;20037;-42
2021/05/30 00:21:41;;;;;;;2.88;2.60;;;;;;;19.55;36.43;102892.56;4170119;28;20044;-41
2021/05/30 00:23:41;;;;;;;5.55;2.55;;;;;;;19.55;36.35;102887.81;4177124;28;20506;-41
2021/05/30 00:25:41;;;;;;;2.33;2.10;;;;;;;19.58;36.51;102898.47;4175760;28;20037;-41
2021/05/30 00:27:42;;;;;;;3.85;2.95;;;;;;;19.50;36.65;102892.41;4176066;28;20037;-41
2021/05/30 00:29:42;;;;;;;2.65;2.45;;;;;;;19.53;36.67;102905.84;4176311;28;20115;-41
2021/05/30 00:31:43;;;;;;;2.92;2.70;;;;;;;19.51;36.53;102897.72;4173414;28;20082;-42
2021/05/30 00:33:45;;;;;;;4.13;2.60;;;;;;;19.47;36.58;102893.72;4174752;28;20025;-41
2021/05/30 00:35:46;;;;;;;2.95;2.60;;;;;;;19.49;36.43;102904.59;4176250;28;20399;-41
2021/05/30 00:37:46;;;;;;;2.95;2.50;;;;;;;19.52;36.60;102895.78;4176948;28;20227;-41
2021/05/30 00:39:47;;;;;;;3.58;2.40;;;;;;;19.51;36.40;102886.63;4180779;28;20040;-41
2021/05/30 00:41:47;;;;;;;2.50;2.30;;;;;;;19.46;36.66;102888.41;4175564;28;20059;-41
2021/05/30 00:43:50;;;;;;;3.42;2.70;;;;;;;19.45;36.60;102882.00;4174381;28;20048;-41
2021/05/30 00:45:51;;;;;;;2.92;2.10;;;;;;;19.48;36.62;102891.78;4176099;28;20041;-41
2021/05/30 00:47:51;;;;;;;2.65;2.42;;;;;;;19.40;36.45;102879.06;4174835;28;20475;-41
2021/05/30 00:49:52;;;;;;;3.00;2.70;;;;;;;19.49;36.48;102893.47;4179549;28;20040;-41
2021/05/30 00:51:53;;;;;;;3.00;2.80;;;;;;;19.37;36.51;102869.28;4176081;28;20052;-42
2021/05/30 00:53:53;;;;;;;2.70;2.50;;;;;;;19.35;36.73;102876.97;4176968;28;20041;-43
2021/05/30 00:55:54;;;;;;;4.22;2.80;;;;;;;19.44;36.43;102887.78;4182760;28;20435;-43
2021/05/30 00:57:54;;;;;;;2.42;2.20;;;;;;;19.39;36.58;102885.72;4173433;28;20120;-44
2021/05/30 00:59:55;;;;;;;3.97;2.70;;;;;;;19.41;36.49;102877.97;4175565;28;20032;-44
2021/05/30 01:01:55;;;;;;;2.92;2.10;;;;;;;19.41;36.46;102877.97;4175372;28;20025;-44
2021/05/30 01:03:56;;;;;;;5.03;2.20;;;;;;;19.34;36.83;102874.44;4178560;28;20036;-44
2021/05/30 01:05:56;;;;;;;2.97;2.42;;;;;;;19.38;36.76;102870.97;4185561;28;20119;-44
2021/05/30 01:07:57;;;;;;;3.45;2.35;;;;;;;19.37;36.58;102871.19;4174586;28;20525;-43
2021/05/30 01:10:33;;;;;;;3.33;2.20;;;;;;;19.31;36.77;102869.34;4168000;28;20025;-43
2021/05/30 01:12:34;;;;;;;3.53;2.92;;;;;;;19.35;36.53;102873.38;4164864;28;20385;-43
2021/05/30 01:14:35;;;;;;;2.75;2.40;;;;;;;19.35;36.54;102868.66;4174570;28;20033;-42
2021/05/30 01:16:37;;;;;;;3.30;2.10;;;;;;;19.33;36.62;102865.25;4176776;28;20025;-42
2021/05/30 01:18:38;;;;;;;2.78;2.28;;;;;;;19.31;36.72;102866.56;4175632;28;20423;-43
2021/05/30 01:20:39;;;;;;;7.45;2.58;;;;;;;19.29;36.56;102871.50;4179290;28;20029;-43
2021/05/30 01:22:41;;;;;;;4.70;2.88;;;;;;;19.29;36.64;102865.97;4175852;28;20543;-43
2021/05/30 01:24:42;;;;;;;3.10;2.22;;;;;;;19.27;36.63;102862.59;4172223;28;20125;-43
2021/05/30 01:26:43;;;;;;;3.08;2.20;;;;;;;19.20;36.83;102862.63;4176193;28;20052;-44
2021/05/30 01:28:43;;;;;;;5.22;2.40;;;;;;;19.25;36.94;102868.38;4173948;28;20566;-43
2021/05/30 01:30:47;;;;;;;3.42;2.40;;;;;;;19.30;36.80;102867.66;4173697;28;20104;-42
2021/05/30 01:32:49;;;;;;;2.22;1.95;;;;;;;19.24;36.84;102855.56;4173967;28;20044;-42
2021/05/30 01:34:50;;;;;;;3.72;2.33;;;;;;;19.24;36.75;102859.16;4174941;28;20041;-41
2021/05/30 01:36:51;;;;;;;3.15;2.38;;;;;;;19.27;36.87;102860.66;4178381;28;20037;-41
2021/05/30 01:38:51;;;;;;;3.00;2.13;;;;;;;19.21;37.03;102867.97;4174360;28;20037;-41
2021/05/30 01:40:52;;;;;;;4.18;2.30;;;;;;;19.22;36.84;102866.91;4176375;28;20094;-41
2021/05/30 01:42:55;;;;;;;3.47;2.30;;;;;;;19.21;36.74;102869.91;4175956;28;20049;-42
2021/05/30 01:44:55;;;;;;;6.53;2.15;;;;;;;19.19;36.85;102864.56;4171840;28;20063;-41
2021/05/30 01:46:56;;;;;;;3.55;2.50;;;;;;;19.18;36.91;102870.38;4166173;28;20041;-41
2021/05/30 01:48:58;;;;;;;4.10;2.70;;;;;;;18.98;37.20;102867.78;4173818;28;20033;-41
2021/05/30 01:50:58;;;;;;;5.03;2.70;;;;;;;19.09;36.97;102871.75;4176453;28;20040;-41
2021/05/30 01:53:05;;;;;;;3.88;2.72;;;;;;;18.97;37.03;102864.16;4180050;28;20035;-41
2021/05/30 01:55:08;;;;;;;2.97;2.22;;;;;;;19.03;37.29;102867.94;4173689;28;20037;-41
2021/05/30 01:57:10;;;;;;;3.92;2.30;;;;;;;19.05;37.03;102863.03;4175899;28;20116;-41
2021/05/30 01:59:10;;;;;;;4.00;2.50;;;;;;;19.14;37.02;102863.56;4178217;28;20055;-42
2021/05/30 02:01:13;;;;;;;6.10;2.40;;;;;;;19.09;36.89;102867.03;4172506;28;20057;-41
2021/05/30 02:03:13;;;;;;;4.28;2.35;;;;;;;19.00;37.09;102858.16;4176144;28;20136;-42
2021/05/30 02:05:14;;;;;;;3.70;2.50;;;;;;;18.78;37.22;102834.69;4173965;28;20420;-42
2021/05/30 02:07:15;;;;;;;2.95;2.10;;;;;;;19.05;37.12;102868.56;4173796;28;20094;-41
2021/05/30 02:09:17;;;;;;;3.53;2.70;;;;;;;18.95;37.19;102863.53;4174457;28;20025;-41
2021/05/30 02:11:18;;;;;;;4.03;2.38;;;;;;;19.06;37.17;102859.13;4174799;28;20143;-42
2021/05/30 02:13:20;;;;;;;3.35;2.58;;;;;;;19.03;37.20;102862.38;4175287;28;20325;-42
2021/05/30 02:15:22;;;;;;;2.90;2.17;;;;;;;19.01;37.12;102859.00;4174449;28;20040;-42
2021/05/30 02:17:25;;;;;;;5.88;2.75;;;;;;;18.94;37.30;102863.75;4171159;28;20029;-43
2021/05/30 02:19:26;;;;;;;3.25;2.28;;;;;;;18.87;37.25;102861.91;4160276;28;20030;-42
2021/05/30 02:21:37;;;;;;;5.03;2.88;;;;;;;18.91;37.38;102867.00;4171614;28;20084;-44
2021/05/30 02:23:37;;;;;;;4.43;2.30;;;;;;;18.91;37.32;102875.31;4170715;28;20140;-43
2021/05/30 02:25:38;;;;;;;4.28;2.30;;;;;;;18.96;37.18;102872.72;4161292;28;20076;-47
2021/05/30 02:27:39;;;;;;;2.63;2.30;;;;;;;18.88;37.40;102873.88;4174643;28;20487;-42
2021/05/30 02:29:42;;;;;;;3.40;2.30;;;;;;;18.84;37.24;102865.16;4165299;28;20040;-42
2021/05/30 02:31:42;;;;;;;2.97;2.22;;;;;;;18.75;37.10;102849.88;4175510;28;20495;-42
2021/05/30 02:33:43;;;;;;;2.90;2.33;;;;;;;18.94;37.25;102869.31;4172372;28;20041;-41
2021/05/30 02:35:43;;;;;;;3.70;2.20;;;;;;;18.87;36.86;102866.63;4181458;28;20130;-42
2021/05/30 02:37:44;;;;;;;4.47;2.42;;;;;;;18.75;37.25;102860.13;4169461;28;20396;-42
2021/05/30 02:39:45;;;;;;;3.92;1.80;;;;;;;18.82;37.13;102867.31;4173980;28;20044;-42
2021/05/30 02:41:46;;;;;;;2.28;2.03;;;;;;;18.88;37.14;102858.06;4174985;28;20060;-42
2021/05/30 02:43:48;;;;;;;3.92;2.30;;;;;;;18.85;37.10;102869.63;4173002;28;20041;-42
2021/05/30 02:45:48;;;;;;;3.05;1.80;;;;;;;18.88;37.12;102871.94;4170583;28;20061;-42
2021/05/30 02:47:49;;;;;;;3.00;2.38;;;;;;;18.96;36.52;102867.19;4174959;28;20510;-42
2021/05/30 02:49:49;;;;;;;2.85;2.28;;;;;;;18.97;36.64;102863.31;4167858;28;20032;-42
2021/05/30 02:51:50;;;;;;;3.42;2.00;;;;;;;18.93;36.78;102864.84;4175848;28;20545;-42
2021/05/30 02:53:51;;;;;;;2.55;1.90;;;;;;;18.96;36.65;102870.78;4171498;28;20037;-42
2021/05/30 02:55:51;;;;;;;4.18;3.15;;;;;;;18.88;36.67;102874.72;4181988;28;20049;-43
2021/05/30 02:57:52;;;;;;;2.33;2.22;;;;;;;18.92;36.77;102868.69;4173334;28;20025;-44
2021/05/30 02:59:53;;;;;;;4.60;2.10;;;;;;;18.86;36.77;102871.34;4173983;28;20025;-44
2021/05/30 03:01:53;;;;;;;5.40;2.10;;;;;;;18.84;36.78;102867.91;4181181;28;20029;-42
2021/05/30 03:03:54;;;;;;;3.28;2.47;;;;;;;18.94;36.72;102869.31;4173806;28;20089;-42
2021/05/30 03:05:54;;;;;;;3.60;2.60;;;;;;;18.86;36.77;102870.47;4175706;28;20037;-42
2021/05/30 03:07:54;;;;;;;3.80;2.40;;;;;;;18.81;36.75;102862.81;4177927;28;20123;-41
2021/05/30 03:09:55;;;;;;;4.38;2.40;;;;;;;18.92;36.77;102864.00;4173136;28;20040;-41
2021/05/30 03:11:55;;;;;;;2.50;2.30;;;;;;;18.89;36.87;102865.31;4172401;28;20090;-41
2021/05/30 03:13:57;;;;;;;4.15;2.80;;;;;;;18.88;36.75;102866.38;4173449;28;20036;-42
2021/05/30 03:15:58;;;;;;;2.70;2.50;;;;;;;18.77;36.73;102860.75;4170083;28;20087;-41
2021/05/30 03:17:59;;;;;;;3.72;2.08;;;;;;;18.78;36.90;102860.50;4175111;28;20025;-41
2021/05/30 03:19:59;;;;;;;3.90;2.10;;;;;;;18.67;36.64;102848.25;4173166;28;20036;-42
2021/05/30 03:22:00;;;;;;;4.35;2.40;;;;;;;18.66;36.79;102862.34;4172730;28;20028;-43
2021/05/30 03:24:00;;;;;;;3.78;2.20;;;;;;;18.78;37.06;102868.84;4172776;28;20391;-43
2021/05/30 03:26:01;;;;;;;4.40;2.40;;;;;;;18.74;37.12;102870.38;4156528;28;20091;-44
2021/05/30 03:28:03;;;;;;;3.20;2.03;;;;;;;18.76;36.81;102868.22;4174894;28;20051;-43
2021/05/30 03:30:04;;;;;;;3.15;2.47;;;;;;;18.79;36.73;102869.69;4173103;28;20028;-42
2021/05/30 03:32:04;;;;;;;5.30;2.70;;;;;;;18.61;37.06;102860.25;4170398;28;20463;-42
2021/05/30 03:34:05;;;;;;;3.47;2.78;;;;;;;18.62;36.91;102864.72;4163918;28;20525;-43
2021/05/30 03:36:10;;;;;;;4.70;2.13;;;;;;;18.55;37.13;102871.41;4175030;28;20390;-42
2021/05/30 03:38:14;;;;;;;4.05;3.10;;;;;;;18.75;36.91;102869.28;4179739;28;20028;-41
2021/05/30 03:42:29;;;;;;;2.97;2.05;;;;;;;18.57;36.89;102881.22;4172126;28;20045;-42
2021/05/30 03:44:29;;;;;;;5.25;2.80;;;;;;;18.76;37.01;102884.03;4176181;28;20522;-42
2021/05/30 03:46:30;;;;;;;5.13;2.55;;;;;;;18.81;36.82;102882.25;4170410;28;20055;-42
2021/05/30 03:48:31;;;;;;;2.75;2.45;;;;;;;18.72;36.60;102880.84;4171087;28;20442;-41
2021/05/30 03:50:33;;;;;;;4.03;2.20;;;;;;;18.76;36.84;102879.31;4175099;28;20025;-42
2021/05/30 03:52:33;;;;;;;4.70;2.60;;;;;;;18.79;36.72;102889.97;4173992;28;20048;-42
2021/05/30 03:54:34;;;;;;;3.50;2.30;;;;;;;18.73;36.83;102885.31;4173987;28;20039;-42
2021/05/30 03:56:36;;;;;;;3.83;2.33;;;;;;;18.78;36.81;102884.66;4171859;28;20036;-42
2021/05/30 03:58:36;;;;;;;3.13;2.55;;;;;;;18.58;37.43;102882.06;4172737;28;20114;-42
2021/05/30 04:00:37;;;;;;;3.58;1.90;;;;;;;18.57;37.04;102867.34;4172916;28;20123;-42
2021/05/30 04:02:38;;;;;;;3.08;2.35;;;;;;;18.67;37.15;102875.16;4174726;28;20368;-42
2021/05/30 04:04:38;;;;;;;2.80;2.15;;;;;;;18.70;36.98;102878.28;4178885;28;20036;-42
2021/05/30 04:06:39;;;;;;;3.70;2.58;;;;;;;18.74;36.93;102875.94;4176570;28;20511;-42
2021/05/30 04:08:39;;;;;;;4.47;2.15;;;;;;;18.59;37.27;102886.53;4171418;28;20369;-42
2021/05/30 04:10:42;;;;;;;2.72;2.10;;;;;;;18.67;36.94;102881.53;4177677;28;20334;-42
2021/05/30 04:12:43;;;;;;;3.45;2.20;;;;;;;18.72;36.87;102883.63;4174424;28;20079;-42
2021/05/30 04:14:43;;;;;;;3.58;2.55;;;;;;;18.62;37.17;102884.16;4178482;28;20078;-42
2021/05/30 04:16:44;;;;;;;4.47;2.55;;;;;;;18.67;36.97;102884.31;4182749;28;20405;-42
2021/05/30 04:18:44;;;;;;;2.50;2.30;;;;;;;18.60;37.01;102886.31;4174230;28;20115;-42
2021/05/30 04:20:44;;;;;;;3.88;2.55;;;;;;;18.48;37.29;102880.66;4178738;28;20037;-42
2021/05/30 04:22:45;;;;;;;3.60;2.40;;;;;;;18.60;37.05;102879.91;4173229;28;20044;-42
2021/05/30 04:24:45;;;;;;;3.03;2.17;;;;;;;18.62;37.06;102881.38;4172865;28;20445;-42
2021/05/30 04:26:46;;;;;;;3.13;2.65;;;;;;;18.67;37.17;102883.47;4177955;28;20078;-42
2021/05/30 04:28:46;;;;;;;2.90;2.30;;;;;;;18.54;36.57;102884.44;4174301;28;20455;-42
2021/05/30 04:30:47;;;;;;;2.90;2.38;;;;;;;18.63;37.05;102883.09;4174436;28;20025;-42
2021/05/30 04:32:47;;;;;;;2.80;2.00;;;;;;;18.63;36.92;102893.31;4174477;28;20032;-42
2021/05/30 04:34:48;;;;;;;4.22;2.13;;;;;;;18.63;37.16;102893.31;4174435;28;20040;-42
2021/05/30 04:36:48;;;;;;;3.05;2.30;;;;;;;18.54;37.40;102884.44;4178220;28;20082;-42
2021/05/30 04:38:49;;;;;;;3.45;1.80;;;;;;;18.58;37.07;102888.44;4176562;28;20071;-41
2021/05/30 04:40:51;;;;;;;3.20;2.20;;;;;;;18.56;36.91;102881.44;4172027;28;20033;-42
2021/05/30 04:42:52;;;;;;;5.22;2.50;;;;;;;18.63;37.12;102890.53;4169504;28;20455;-42
2021/05/30 04:44:52;;;;;;;2.83;2.15;;;;;;;18.59;37.21;102890.16;4175156;28;20114;-42
2021/05/30 04:46:53;;;;;;;2.53;2.15;;;;;;;18.62;36.99;102889.69;4185091;28;20474;-42
2021/05/30 04:48:53;;;;;;;4.25;2.20;;;;;;;18.57;37.08;102897.84;4178957;28;20025;-42
2021/05/30 04:51:06;;;;;;;4.85;2.25;;;;;;;18.28;37.20;102852.22;4173742;28;20025;-42
2021/05/30 04:53:06;;;;;;;3.88;2.50;;;;;;;18.47;37.50;102892.81;4177043;28;20546;-42
2021/05/30 04:55:10;;;;;;;3.42;2.33;;;;;;;18.45;37.13;102881.09;4176119;28;20064;-43
2021/05/30 04:57:11;;;;;;;5.97;2.30;;;;;;;18.59;37.09;102889.31;4175355;28;20383;-44
2021/05/30 04:59:11;;;;;;;4.60;2.50;;;;;;;18.51;37.32;102888.50;4173619;28;20044;-42
2021/05/30 05:01:12;;;;;;;4.22;2.35;;;;;;;18.52;37.11;102890.22;4172763;28;20038;-42
2021/05/30 05:03:12;;;;;;;4.40;2.25;;;;;;;18.57;36.75;102894.22;4175679;28;20394;-42
2021/05/30 05:05:13;;;;;;;4.28;2.28;;;;;;;18.50;37.39;102891.50;4174332;28;20040;-42
2021/05/30 05:07:14;;;;;;;3.50;2.17;;;;;;;18.50;37.19;102897.91;4173946;28;20125;-42
2021/05/30 05:09:14;;;;;;;4.47;2.05;;;;;;;18.46;37.34;102902.22;4172749;28;20029;-42
2021/05/30 05:11:15;;;;;;;3.80;2.40;;;;;;;18.48;37.31;102888.97;4174683;28;20251;-42
2021/05/30 05:13:16;;;;;;;4.85;2.28;;;;;;;18.53;37.22;102899.38;4172221;28;20037;-41
2021/05/30 05:15:16;;;;;;;3.97;2.63;;;;;;;18.49;37.32;102893.44;4181680;28;20324;-41
2021/05/30 05:17:17;;;;;;;4.28;2.28;;;;;;;18.47;37.27;102901.13;4176419;28;20122;-42
2021/05/30 05:19:17;;;;;;;4.80;2.33;;;;;;;18.45;37.40;102894.13;4173428;28;20033;-42
2021/05/30 05:21:18;;;;;;;4.03;2.40;;;;;;;18.39;37.28;102876.47;4173114;28;20029;-42
2021/05/30 05:23:22;;;;;;;5.22;2.60;;;;;;;18.41;37.35;102898.41;4170611;28;20032;-42
2021/05/30 05:25:22;;;;;;;3.60;2.40;;;;;;;18.44;37.28;102893.25;4177448;28;20120;-42
2021/05/30 05:27:22;;;;;;;3.22;2.10;;;;;;;18.45;37.35;102894.97;4173887;28;20119;-42
2021/05/30 05:29:23;;;;;;;4.32;2.65;;;;;;;18.46;37.29;102896.66;4172402;28;20037;-42
2021/05/30 05:31:23;;;;;;;4.65;2.50;;;;;;;18.47;37.17;102898.34;4165599;28;20044;-42
2021/05/30 05:33:24;;;;;;;3.97;2.50;;;;;;;18.48;37.23;102897.28;4174738;28;20044;-41
2021/05/30 05:35:26;;;;;;;3.63;2.55;;;;;;;18.49;37.17;102895.34;4185093;28;20040;-42
2021/05/30 05:37:26;;;;;;;3.67;2.08;;;;;;;18.46;37.27;102893.91;4178617;28;20615;-43
2021/05/30 05:39:27;;;;;;;3.67;2.13;;;;;;;18.46;37.42;102896.66;4173897;28;20052;-43
2021/05/30 05:41:27;;;;;;;4.07;2.13;;;;;;;18.46;37.26;102895.81;4167749;28;20390;-43
2021/05/30 05:43:27;;;;;;;3.50;2.05;;;;;;;18.45;37.48;102885.81;4174112;28;20132;-44
2021/05/30 05:45:28;;;;;;;3.72;2.55;;;;;;;18.49;37.40;102896.22;4172530;28;20248;-43
2021/05/30 05:47:28;;;;;;;4.57;2.58;;;;;;;18.43;37.48;102897.13;4176427;28;20033;-43
2021/05/30 05:49:29;;;;;;;4.38;2.45;;;;;;;18.43;37.43;102894.34;4176412;28;20505;-42
2021/05/30 05:51:29;;;;;;;3.85;2.40;;;;;;;18.46;37.38;102893.03;4184603;28;20462;-42
2021/05/30 05:53:29;;;;;;;3.67;2.40;;;;;;;18.45;37.31;102894.97;4173893;28;20037;-44
2021/05/30 05:55:30;;;;;;;4.07;2.17;;;;;;;18.49;37.21;102895.34;4173019;28;20049;-44
2021/05/30 05:57:30;;;;;;;4.35;2.38;;;;;;;18.50;37.55;102895.13;4176516;28;20663;-42
2021/05/30 05:59:31;;;;;;;3.60;2.35;;;;;;;18.46;37.24;102899.44;4174738;28;20037;-42
2021/05/30 06:01:31;;;;;;;6.22;2.40;;;;;;;18.18;37.37;102861.88;4176848;28;20043;-42
2021/05/30 06:03:31;;;;;;;3.92;2.30;;;;;;;18.45;37.18;102891.34;4174940;28;20055;-42
2021/05/30 06:05:32;;;;;;;4.03;2.28;;;;;;;18.49;37.13;102896.22;4175435;28;20387;-42
2021/05/30 06:07:33;;;;;;;3.45;2.40;;;;;;;18.45;37.44;102889.41;4174381;28;20041;-43
2021/05/30 06:09:34;;;;;;;3.67;2.45;;;;;;;18.38;37.28;102887.78;4172666;28;20041;-43
2021/05/30 06:11:36;;;;;;;4.13;2.63;;;;;;;18.48;37.18;102893.69;4174938;28;20043;-42
2021/05/30 06:13:36;;;;;;;4.00;2.33;;;;;;;18.46;37.34;102899.44;4176840;28;20147;-43
2021/05/30 06:15:41;;;;;;;3.10;2.28;;;;;;;18.48;37.21;102896.44;4174151;28;20588;-42
2021/05/30 06:17:41;;;;;;;3.20;2.33;;;;;;;18.48;37.19;102896.44;4171646;28;20526;-43
2021/05/30 06:19:42;;;;;;;5.15;2.47;;;;;;;18.43;37.33;102886.03;4174538;28;20033;-42
2021/05/30 06:21:42;;;;;;;4.57;2.08;;;;;;;18.28;37.70;102878.00;4174580;28;20036;-42
2021/05/30 06:23:42;;;;;;;3.10;2.08;;;;;;;18.42;37.33;102902.91;4166036;28;20041;-42
2021/05/30 06:25:44;;;;;;;4.72;2.38;;;;;;;18.49;37.32;102896.22;4171069;28;20029;-41
2021/05/30 06:27:44;;;;;;;3.28;2.30;;;;;;;18.49;37.17;102906.44;4172206;28;20025;-41
2021/05/30 06:29:45;;;;;;;3.53;2.28;;;;;;;18.35;37.20;102900.16;4160014;28;20048;-43
2021/05/30 06:31:45;;;;;;;3.35;2.35;;;;;;;18.29;37.56;102898.25;4172068;28;20040;-43
2021/05/30 06:33:46;;;;;;;3.30;2.25;;;;;;;18.24;36.90;102898.91;4171840;28;20415;-42
2021/05/30 06:35:46;;;;;;;3.08;2.75;;;;;;;18.20;37.51;102908.78;4176924;28;20091;-42
2021/05/30 06:37:47;;;;;;;2.60;2.35;;;;;;;18.16;37.49;102905.59;4172829;28;20047;-42
2021/05/30 06:39:47;;;;;;;4.68;2.50;;;;;;;18.29;37.38;102912.09;4172401;28;20383;-43
2021/05/30 06:41:48;;;;;;;5.03;2.30;;;;;;;18.20;37.60;102914.31;4171492;28;20503;-42
2021/05/30 06:43:51;;;;;;;4.05;2.72;;;;;;;18.18;37.57;102913.69;4170521;28;20052;-42
2021/05/30 06:45:51;;;;;;;4.05;2.72;;;;;;;18.17;37.58;102910.06;4175283;28;20048;-43
2021/05/30 06:47:53;;;;;;;3.40;2.10;;;;;;;18.11;37.51;102912.91;4171078;28;20032;-44
2021/05/30 06:49:54;;;;;;;3.97;2.50;;;;;;;18.16;37.68;102908.34;4170148;28;20098;-44
2021/05/30 06:51:54;;;;;;;3.70;2.78;;;;;;;18.22;37.97;102925.19;4170631;28;20040;-44
2021/05/30 06:53:55;;;;;;;3.20;2.60;;;;;;;18.16;37.68;102916.69;4170891;28;20491;-44
2021/05/30 06:55:55;;;;;;;3.33;2.17;;;;;;;18.25;37.72;102924.75;4176854;28;20032;-43
2021/05/30 06:57:56;;;;;;;5.22;2.78;;;;;;;18.24;37.22;102917.50;4172688;28;20028;-42
2021/05/30 06:59:56;;;;;;;3.35;2.50;;;;;;;18.31;37.40;102918.34;4172721;28;20040;-44
2021/05/30 07:01:57;;;;;;;3.08;2.75;;;;;;;18.32;37.41;102931.09;4176268;28;20119;-42
2021/05/30 07:03:58;;;;;;;2.97;2.20;;;;;;;18.31;37.32;102918.34;4174634;28;20087;-42
2021/05/30 07:05:59;;;;;;;2.95;2.25;;;;;;;18.30;37.16;102916.59;4176003;28;20041;-42
2021/05/30 07:08:00;;;;;;;3.00;2.50;;;;;;;18.27;37.50;102920.66;4173952;28;20037;-41
2021/05/30 07:10:00;;;;;;;2.72;2.00;;;;;;;18.28;37.43;102921.53;4172477;28;20032;-41
2021/05/30 07:12:02;;;;;;;3.17;2.50;;;;;;;18.25;37.57;102916.44;4174789;28;20036;-41
2021/05/30 07:14:03;;;;;;;3.25;2.20;;;;;;;18.27;37.40;102905.94;4173181;28;20029;-42
2021/05/30 07:16:03;;;;;;;2.35;2.15;;;;;;;18.30;37.75;102920.25;4175290;28;20386;-42
2021/05/30 07:18:04;;;;;;;3.95;2.53;;;;;;;18.31;37.69;102910.00;4176050;28;20158;-42
2021/05/30 07:20:06;;;;;;;4.13;2.53;;;;;;;18.35;37.69;102912.13;4172758;28;20052;-44
2021/05/30 07:22:06;;;;;;;4.82;2.45;;;;;;;18.32;37.40;102912.56;4171163;28;20060;-44
2021/05/30 07:24:07;;;;;;;3.50;2.92;;;;;;;18.37;37.23;102902.69;4174639;28;20037;-43
2021/05/30 07:26:07;;;;;;;4.38;2.50;;;;;;;18.37;37.30;102911.03;4171138;28;20041;-44
2021/05/30 07:28:08;;;;;;;3.50;2.78;;;;;;;18.31;37.60;102902.53;4170559;28;20048;-43
2021/05/30 07:30:09;;;;;;;2.95;2.65;;;;;;;18.42;37.19;102909.28;4172614;28;20495;-43
2021/05/30 07:32:09;;;;;;;3.58;2.90;;;;;;;18.50;37.52;102916.47;4169916;28;20451;-42
2021/05/30 07:34:11;;;;;;;4.90;2.40;;;;;;;18.53;37.08;102914.09;4175909;28;20064;-43
2021/05/30 07:36:12;;;;;;;2.85;2.58;;;;;;;18.45;37.26;102908.81;4171567;28;20049;-45
2021/05/30 07:38:12;;;;;;;3.05;2.75;;;;;;;18.43;37.39;102908.22;4173886;28;20103;-43
2021/05/30 07:40:13;;;;;;;2.50;2.30;;;;;;;18.36;37.45;102912.94;4173959;28;20034;-44
2021/05/30 07:42:14;;;;;;;3.45;2.60;;;;;;;18.36;37.72;102907.41;4168579;28;20498;-42
2021/05/30 07:44:15;;;;;;;3.45;2.47;;;;;;;18.37;37.58;102917.44;4171329;28;20515;-41
2021/05/30 07:46:15;;;;;;;2.92;2.45;;;;;;;18.34;37.66;102917.88;4173011;28;20036;-42
2021/05/30 07:48:16;;;;;;;3.15;2.85;;;;;;;18.37;37.97;102917.44;4170832;28;20041;-41
2021/05/30 07:50:17;;;;;;;2.90;2.60;;;;;;;18.41;37.82;102907.56;4173459;28;20036;-42
2021/05/30 07:52:17;;;;;;;6.47;2.83;;;;;;;18.40;38.04;102918.88;4170856;28;20041;-42
2021/05/30 07:54:18;;;;;;;4.03;2.60;;;;;;;18.34;38.40;102906.78;4172362;28;20379;-42
2021/05/30 07:56:19;;;;;;;4.75;2.65;;;;;;;18.40;38.00;102908.66;4173570;28;20041;-42
2021/05/30 07:58:19;;;;;;;3.97;2.75;;;;;;;18.43;37.98;102907.34;4171357;28;20056;-42
2021/05/30 08:00:20;;;;;;;4.50;2.72;;;;;;;18.42;38.42;102902.91;4171683;28;20387;-42
2021/05/30 08:02:20;;;;;;;4.07;2.83;;;;;;;18.41;38.48;102907.56;4171854;28;20037;-41
2021/05/30 08:04:21;;;;;;;5.13;3.15;;;;;;;18.40;38.55;102905.03;4170890;28;20068;-41
2021/05/30 08:06:21;;;;;;;3.60;2.90;;;;;;;18.26;38.59;102879.28;4173471;28;20045;-41
2021/05/30 08:08:22;;;;;;;3.33;2.92;;;;;;;18.45;38.19;102903.28;4171561;28;20047;-44
2021/05/30 08:10:26;;;;;;;3.88;3.38;;;;;;;18.48;38.51;102902.81;4170282;28;20053;-43
2021/05/30 08:12:26;;;;;;;18.25;3.20;;;;;;;18.43;38.18;102894.34;4175309;28;20037;-42
2021/05/30 08:14:29;;;;;;;3.45;3.00;;;;;;;18.46;38.29;102917.97;4170711;28;20494;-42
2021/05/30 08:16:29;;;;;;;3.95;3.35;;;;;;;18.47;38.23;102912.22;4172530;28;20033;-42
2021/05/30 08:18:30;;;;;;;5.93;3.30;;;;;;;18.45;38.63;102906.06;4171065;28;20043;-41
2021/05/30 08:20:30;;;;;;;4.35;3.70;;;;;;;18.52;38.30;102906.84;4167446;28;20531;-42
2021/05/30 08:22:31;;;;;;;4.60;3.40;;;;;;;18.51;38.31;102905.16;4170820;28;20037;-41
2021/05/30 08:24:32;;;;;;;3.80;3.00;;;;;;;18.59;38.04;102912.34;4171367;28;20392;-42
2021/05/30 08:26:32;;;;;;;5.28;3.10;;;;;;;18.55;38.32;102901.94;4171485;28;20120;-42
2021/05/30 08:28:33;;;;;;;5.30;3.30;;;;;;;18.60;38.40;102902.09;4172699;28;20506;-41
2021/05/30 08:30:34;;;;;;;5.07;3.30;;;;;;;18.63;38.11;102888.63;4170427;28;20123;-41
2021/05/30 08:32:34;;;;;;;5.85;3.38;;;;;;;18.78;38.17;102893.81;4173301;28;20072;-41
2021/05/30 08:34:36;;;;;;;4.45;3.35;;;;;;;18.79;38.10;102898.28;4169780;28;20116;-40
2021/05/30 08:36:38;;;;;;;4.45;3.40;;;;;;;18.84;37.92;102906.75;4171120;28;20038;-41
2021/05/30 08:38:39;;;;;;;6.13;3.33;;;;;;;18.84;37.69;102905.94;4172455;28;20414;-41
2021/05/30 08:40:41;;;;;;;4.00;3.40;;;;;;;18.82;38.06;102903.38;4170277;28;20094;-41
2021/05/30 08:42:44;;;;;;;6.65;3.50;;;;;;;18.82;37.84;102897.81;4173633;28;20512;-42
2021/05/30 08:44:47;;;;;;;5.63;3.55;;;;;;;18.86;37.82;102907.41;4170661;28;20191;-42
2021/05/30 08:46:47;;;;;;;4.03;3.63;;;;;;;18.78;37.76;102898.50;4174691;28;20155;-42
2021/05/30 08:48:48;;;;;;;3.97;3.25;;;;;;;18.68;38.63;102902.66;4175186;28;20087;-43
2021/05/30 08:51:02;;;;;;;4.28;3.38;;;;;;;18.65;38.38;102894.78;4172531;28;20033;-42
2021/05/30 08:53:05;;;;;;;6.88;3.22;;;;;;;18.73;38.15;102906.69;4176533;28;20041;-42
2021/05/30 08:55:05;;;;;;;4.80;3.78;;;;;;;18.75;38.40;102901.75;4173589;28;20055;-42
2021/05/30 08:57:06;;;;;;;7.32;3.67;;;;;;;18.76;38.11;102907.06;4174474;28;20037;-43
2021/05/30 08:59:32;;;;;;;3.45;2.90;;;;;;;18.78;38.03;102899.34;4175204;28;20029;-42
2021/05/30 09:01:41;;;;;;;4.78;3.42;;;;;;;18.81;37.93;102896.13;4173717;28;20497;-45
2021/05/30 09:04:06;;;;;;;4.38;3.97;;;;;;;18.96;37.58;102904.09;4175213;28;20032;-42
2021/05/30 09:06:17;;;;;;;4.35;3.67;;;;;;;18.89;37.86;102908.84;4174635;28;20075;-43
2021/05/30 09:08:31;;;;;;;5.05;3.67;;;;;;;18.86;37.82;102901.84;4170817;28;20024;-43
2021/05/30 09:10:32;;;;;;;3.97;3.25;;;;;;;18.84;38.15;102884.56;4173699;28;20083;-42
2021/05/30 09:12:39;;;;;;;4.50;3.67;;;;;;;18.96;37.97;102897.72;4171441;28;20049;-42
2021/05/30 09:14:45;;;;;;;4.38;3.72;;;;;;;19.01;37.90;102898.69;4174457;28;20032;-42
2021/05/30 09:16:55;;;;;;;4.10;3.53;;;;;;;19.00;37.81;102905.34;4175183;28;20029;-42
2021/05/30 09:18:55;;;;;;;3.85;3.45;;;;;;;19.03;38.19;102907.66;4172189;28;20114;-42
2021/05/30 09:21:01;;;;;;;5.03;3.80;;;;;;;19.06;38.11;102896.09;4173460;28;20037;-43
2021/05/30 09:23:01;;;;;;;7.30;4.15;;;;;;;19.21;37.74;102904.06;4173217;28;20411;-42
2021/05/30 09:25:22;;;;;;;3.95;3.47;;;;;;;19.19;37.83;102900.66;4174553;28;20045;-43
2021/05/30 09:27:23;;;;;;;3.97;3.58;;;;;;;19.22;37.71;102910.47;4172630;28;20033;-42